createdAt,value
2019-05-25T00:00:53.151Z,18.17
2019-05-25T00:03:22.340Z,18.11
2019-05-25T00:05:51.924Z,18.14
2019-05-25T00:08:40.247Z,18.14
2019-05-25T00:11:09.488Z,18.14
2019-05-25T00:13:58.156Z,18.07
2019-05-25T00:16:27.405Z,18.07
2019-05-25T00:18:56.589Z,17.93
2019-05-25T00:21:45.275Z,17.78
2019-05-25T00:24:14.467Z,17.78
2019-05-25T00:26:43.712Z,17.72
2019-05-25T00:29:13.254Z,17.65
2019-05-25T00:31:42.494Z,17.58
2019-05-25T00:34:11.986Z,17.58
2019-05-25T00:36:43.467Z,17.49
2019-05-25T00:39:12.724Z,17.48
2019-05-25T00:41:41.965Z,17.48
2019-05-25T00:44:11.539Z,17.47
2019-05-25T00:46:40.776Z,17.43
2019-05-25T00:49:10.034Z,17.36
2019-05-25T00:51:39.284Z,17.29
2019-05-25T00:54:08.474Z,17.28
2019-05-25T00:56:37.745Z,17.27
2019-05-25T00:59:07.232Z,17.23
2019-05-25T01:01:36.735Z,17.20
2019-05-25T01:04:06.345Z,17.17
2019-05-25T01:06:35.541Z,17.24
2019-05-25T01:09:44.229Z,17.27
2019-05-25T01:12:13.773Z,17.32
2019-05-25T01:14:43.017Z,17.27
2019-05-25T01:17:12.210Z,17.24
2019-05-25T01:19:41.490Z,17.22
2019-05-25T01:22:11.034Z,17.23
2019-05-25T01:24:44.338Z,17.33
2019-05-25T01:27:11.216Z,17.32
2019-05-25T01:29:40.456Z,17.26
2019-05-25T01:32:09.661Z,17.16
2019-05-25T01:34:38.912Z,17.16
2019-05-25T01:37:08.102Z,17.10
2019-05-25T01:39:37.717Z,16.99
2019-05-25T01:42:06.919Z,16.91
2019-05-25T01:44:36.155Z,16.83
2019-05-25T01:47:05.713Z,16.70
2019-05-25T01:49:34.962Z,16.68
2019-05-25T01:52:04.516Z,16.65
2019-05-25T01:54:34.123Z,16.74
2019-05-25T01:57:03.328Z,16.55
2019-05-25T01:59:32.575Z,16.46
2019-05-25T02:02:01.771Z,16.26
2019-05-25T02:04:31.323Z,16.27
2019-05-25T02:07:00.833Z,16.24
2019-05-25T02:09:30.081Z,16.15
2019-05-25T02:11:59.321Z,16.15
2019-05-25T02:14:28.519Z,16.05
2019-05-25T02:16:58.151Z,16.12
2019-05-25T02:19:27.639Z,16.09
2019-05-25T02:21:57.547Z,16.24
2019-05-25T02:24:26.743Z,16.23
2019-05-25T02:26:55.989Z,16.35
2019-05-25T02:29:25.177Z,16.31
2019-05-25T02:31:54.430Z,16.29
2019-05-25T02:34:23.951Z,16.26
2019-05-25T02:36:53.246Z,16.25
2019-05-25T02:39:22.385Z,16.14
2019-05-25T02:41:51.622Z,16.01
2019-05-25T02:44:20.807Z,15.93
2019-05-25T02:46:50.345Z,15.77
2019-05-25T02:49:19.863Z,15.73
2019-05-25T02:51:49.201Z,15.62
2019-05-25T02:54:18.755Z,15.58
2019-05-25T02:56:48.001Z,15.47
2019-05-25T02:59:17.189Z,15.35
2019-05-25T03:01:46.379Z,15.39
2019-05-25T03:04:15.955Z,15.35
2019-05-25T03:10:19.796Z,15.18
2019-05-25T03:12:49.598Z,15.18
2019-05-25T03:15:18.784Z,15.18
2019-05-25T03:17:48.742Z,15.28
2019-05-25T03:26:03.297Z,15.42
2019-05-25T03:28:32.912Z,15.45
2019-05-25T03:31:02.147Z,15.40
2019-05-25T03:33:31.378Z,15.34
2019-05-25T03:36:00.570Z,15.37
2019-05-25T03:38:29.804Z,15.38
2019-05-25T03:40:59.314Z,15.30
2019-05-25T03:43:28.952Z,15.41
2019-05-25T03:45:58.507Z,15.33
2019-05-25T03:48:27.735Z,15.26
2019-05-25T03:50:57.405Z,15.03
2019-05-25T03:53:27.156Z,15.01
2019-05-25T03:56:05.367Z,14.94
2019-05-25T03:58:27.993Z,15.00
2019-05-25T04:00:57.240Z,15.16
2019-05-25T04:03:26.461Z,15.18
2019-05-25T04:05:55.692Z,15.07
2019-05-25T04:08:24.895Z,15.14
2019-05-25T04:10:54.728Z,15.25
2019-05-25T04:13:23.917Z,15.34
2019-05-25T04:15:53.157Z,15.46
2019-05-25T04:18:22.347Z,15.62
2019-05-25T04:20:51.931Z,15.74
2019-05-25T04:23:21.126Z,15.77
2019-05-25T04:25:50.632Z,15.71
2019-05-25T04:30:54.910Z,15.44
2019-05-25T04:33:24.161Z,15.48
2019-05-25T04:35:53.370Z,15.47
2019-05-25T04:38:22.616Z,15.38
2019-05-25T04:40:51.811Z,15.48
2019-05-25T04:43:21.050Z,15.54
2019-05-25T04:45:50.233Z,15.74
2019-05-25T04:48:19.483Z,15.90
2019-05-25T04:50:48.682Z,15.89
2019-05-25T04:53:17.924Z,16.04
2019-05-25T04:55:47.485Z,16.16
2019-05-25T04:58:17.060Z,16.26
2019-05-25T05:00:46.684Z,16.23
2019-05-25T05:03:16.302Z,16.32
2019-05-25T05:05:45.852Z,16.28
2019-05-25T05:08:15.101Z,16.39
2019-05-25T05:10:44.965Z,16.49
2019-05-25T05:13:14.214Z,16.61
2019-05-25T05:15:43.755Z,16.64
2019-05-25T05:18:13.027Z,16.62
2019-05-25T05:20:42.575Z,16.56
2019-05-25T05:23:11.812Z,16.74
2019-05-25T05:25:41.782Z,16.76
2019-05-25T05:28:11.607Z,16.91
2019-05-25T05:30:40.815Z,17.09
2019-05-25T05:33:10.512Z,17.21
2019-05-25T05:36:19.374Z,17.34
2019-05-25T05:38:49.355Z,17.56
2019-05-25T05:45:06.531Z,17.72
2019-05-25T05:48:15.205Z,17.87
2019-05-25T05:51:23.792Z,18.05
2019-05-25T05:54:33.941Z,18.20
2019-05-25T05:57:22.266Z,18.45
2019-05-25T05:59:51.467Z,18.64
2019-05-25T06:02:20.657Z,18.71
2019-05-25T06:05:09.088Z,18.93
2019-05-25T06:07:38.349Z,18.93
2019-05-25T06:10:47.070Z,19.02
2019-05-25T06:13:16.306Z,19.10
2019-05-25T06:16:04.676Z,19.12
2019-05-25T06:18:34.259Z,19.12
2019-05-25T06:21:03.451Z,19.13
2019-05-25T06:23:32.988Z,19.19
2019-05-25T06:26:02.515Z,19.27
2019-05-25T06:28:32.074Z,19.49
2019-05-25T06:31:01.261Z,19.73
2019-05-25T06:36:04.981Z,19.72
2019-05-25T06:38:34.545Z,19.92
2019-05-25T06:41:03.732Z,20.03
2019-05-25T06:43:32.978Z,20.11
2019-05-25T06:46:02.172Z,20.10
2019-05-25T06:51:05.921Z,20.24
2019-05-25T06:53:35.423Z,20.16
2019-05-25T06:56:05.023Z,20.16
2019-05-25T06:58:34.253Z,20.19
2019-05-25T07:01:03.716Z,20.32
2019-05-25T07:03:32.904Z,20.36
2019-05-25T07:06:02.150Z,20.48
2019-05-25T07:08:31.330Z,20.52
2019-05-25T07:11:00.925Z,20.62
2019-05-25T07:13:30.109Z,20.36
2019-05-25T07:15:59.339Z,20.32
2019-05-25T07:18:28.824Z,20.43
2019-05-25T07:20:58.067Z,20.77
2019-05-25T07:23:27.245Z,20.83
2019-05-25T07:25:56.827Z,20.86
2019-05-25T07:28:26.380Z,20.90
2019-05-25T07:30:55.615Z,20.56
2019-05-25T07:33:24.800Z,20.91
2019-05-25T07:35:54.332Z,21.18
2019-05-25T07:38:23.515Z,21.27
2019-05-25T07:40:53.071Z,21.51
2019-05-25T07:43:22.262Z,21.68
2019-05-25T07:45:51.493Z,21.80
2019-05-25T07:48:20.681Z,21.87
2019-05-25T07:50:49.911Z,21.93
2019-05-25T07:53:19.095Z,22.05
2019-05-25T07:55:48.340Z,21.95
2019-05-25T07:58:18.633Z,21.64
2019-05-25T08:00:48.495Z,21.56
2019-05-25T08:03:17.680Z,21.58
2019-05-25T08:05:46.868Z,21.77
2019-05-25T08:08:16.103Z,21.89
2019-05-25T08:10:45.335Z,21.89
2019-05-25T08:13:14.575Z,21.95
2019-05-25T08:15:44.261Z,22.10
2019-05-25T08:18:13.506Z,22.50
2019-05-25T08:21:01.686Z,22.73
2019-05-25T08:23:30.963Z,22.72
2019-05-25T08:26:00.148Z,22.65
2019-05-25T08:31:04.028Z,22.65
2019-05-25T08:33:33.264Z,22.99
2019-05-25T08:36:02.448Z,23.29
2019-05-25T08:38:32.247Z,23.68
2019-05-25T08:41:02.176Z,23.94
2019-05-25T08:43:32.468Z,23.52
2019-05-25T08:46:02.081Z,23.64
2019-05-25T08:48:31.442Z,23.89
2019-05-25T08:51:00.639Z,23.81
2019-05-25T08:53:40.761Z,23.95
2019-05-25T08:56:00.847Z,23.97
2019-05-25T08:58:30.003Z,24.11
2019-05-25T09:00:59.622Z,24.19
2019-05-25T09:03:29.203Z,24.39
2019-05-25T09:05:58.727Z,24.55
2019-05-25T09:08:28.438Z,24.72
2019-05-25T09:10:57.895Z,24.83
2019-05-25T09:13:27.080Z,24.78
2019-05-25T09:15:56.318Z,24.74
2019-05-25T09:18:26.320Z,24.47
2019-05-25T09:20:56.266Z,24.35
2019-05-25T09:23:25.823Z,24.53
2019-05-25T09:28:36.799Z,24.76
2019-05-25T09:31:25.027Z,24.83
2019-05-25T09:33:54.260Z,24.56
2019-05-25T09:36:23.661Z,24.52
2019-05-25T09:38:53.661Z,24.43
2019-05-25T09:41:23.233Z,24.47
2019-05-25T09:43:52.907Z,24.57
2019-05-25T09:46:22.094Z,24.71
2019-05-25T09:48:51.644Z,24.73
2019-05-25T09:51:20.831Z,24.65
2019-05-25T09:53:50.075Z,24.64
2019-05-25T09:56:19.543Z,24.51
2019-05-25T09:58:48.841Z,24.27
2019-05-25T10:01:17.992Z,24.02
2019-05-25T10:03:47.960Z,24.05
2019-05-25T10:06:17.143Z,24.08
2019-05-25T10:08:46.504Z,24.07
2019-05-25T10:11:16.198Z,23.99
2019-05-25T10:13:46.169Z,24.03
2019-05-25T10:16:15.682Z,24.11
2019-05-25T10:18:44.920Z,24.20
2019-05-25T10:21:15.081Z,24.25
2019-05-25T10:23:45.208Z,24.16
2019-05-25T10:26:14.933Z,24.16
2019-05-25T10:28:44.194Z,24.06
2019-05-25T10:31:13.646Z,24.02
2019-05-25T10:34:01.962Z,23.97
2019-05-25T10:36:31.155Z,24.02
2019-05-25T10:39:00.689Z,23.88
2019-05-25T10:41:30.218Z,24.02
2019-05-25T10:43:59.766Z,24.13
2019-05-25T10:46:29.068Z,24.04
2019-05-25T10:48:58.337Z,24.10
2019-05-25T10:51:27.568Z,24.12
2019-05-25T10:53:56.762Z,24.00
2019-05-25T10:56:26.402Z,23.98
2019-05-25T10:58:55.690Z,24.00
2019-05-25T11:01:24.929Z,24.00
2019-05-25T11:03:54.106Z,23.89
2019-05-25T11:06:23.707Z,23.99
2019-05-25T11:08:53.208Z,24.02
2019-05-25T11:11:22.499Z,23.73
2019-05-25T11:13:52.014Z,23.73
2019-05-25T11:16:21.217Z,23.87
2019-05-25T11:18:50.439Z,24.13
2019-05-25T11:24:07.852Z,24.43
2019-05-25T11:26:37.028Z,24.64
2019-05-25T11:29:06.549Z,24.88
2019-05-25T11:31:59.220Z,25.05
2019-05-25T11:34:25.943Z,25.04
2019-05-25T11:36:55.123Z,24.99
2019-05-25T11:39:24.643Z,25.05
2019-05-25T11:41:54.141Z,25.10
2019-05-25T11:44:23.784Z,25.09
2019-05-25T11:46:53.260Z,25.03
2019-05-25T11:49:23.082Z,24.97
2019-05-25T11:51:53.770Z,24.91
2019-05-25T11:54:23.309Z,25.07
2019-05-25T11:56:52.496Z,25.11
2019-05-25T11:59:21.723Z,24.89
2019-05-25T12:02:09.983Z,24.80
2019-05-25T12:04:39.237Z,24.78
2019-05-25T12:07:08.454Z,24.44
2019-05-25T12:09:37.688Z,24.43
2019-05-25T12:12:06.935Z,24.23
2019-05-25T12:14:36.551Z,24.16
2019-05-25T12:17:05.758Z,24.05
2019-05-25T12:19:35.010Z,23.98
2019-05-25T12:22:23.241Z,23.89
2019-05-25T12:24:52.829Z,23.90
2019-05-25T12:27:22.071Z,24.05
2019-05-25T12:29:51.367Z,24.15
2019-05-25T12:32:20.574Z,24.18
2019-05-25T12:34:50.250Z,24.31
2019-05-25T12:37:19.524Z,24.45
2019-05-25T12:39:48.774Z,24.30
2019-05-25T12:42:18.307Z,24.42
2019-05-25T12:44:47.573Z,24.38
2019-05-25T12:47:16.785Z,24.39
2019-05-25T12:49:50.592Z,24.44
2019-05-25T12:52:16.960Z,24.46
2019-05-25T12:54:46.155Z,24.60
2019-05-25T12:57:15.775Z,24.71
2019-05-25T12:59:44.980Z,24.87
2019-05-25T13:02:14.214Z,25.04
2019-05-25T13:04:43.780Z,25.14
2019-05-25T13:07:13.016Z,25.19
2019-05-25T13:09:42.206Z,25.19
2019-05-25T13:12:11.518Z,25.12
2019-05-25T13:14:40.722Z,25.05
2019-05-25T13:17:10.349Z,25.03
2019-05-25T13:19:39.961Z,24.94
2019-05-25T13:22:09.152Z,24.74
2019-05-25T13:24:38.739Z,24.65
2019-05-25T13:27:07.897Z,24.53
2019-05-25T13:29:37.134Z,24.52
2019-05-25T13:32:06.336Z,24.36
2019-05-25T13:34:35.580Z,24.14
2019-05-25T13:37:04.897Z,24.12
2019-05-25T13:39:34.871Z,24.12
2019-05-25T13:42:04.134Z,24.07
2019-05-25T13:44:33.372Z,24.17
2019-05-25T13:47:02.553Z,24.16
2019-05-25T13:49:31.788Z,24.13
2019-05-25T13:52:00.994Z,24.05
2019-05-25T13:54:30.249Z,24.00
2019-05-25T13:56:59.733Z,23.92
2019-05-25T13:59:29.748Z,23.73
2019-05-25T14:01:58.991Z,23.60
2019-05-25T14:04:28.506Z,23.49
2019-05-25T14:06:58.378Z,23.43
2019-05-25T14:09:27.574Z,23.34
2019-05-25T14:11:56.866Z,23.32
2019-05-25T14:14:26.401Z,23.33
2019-05-25T14:16:55.668Z,23.35
2019-05-25T14:19:24.857Z,23.31
2019-05-25T14:21:54.507Z,23.25
2019-05-25T14:24:24.014Z,23.21
2019-05-25T14:26:53.265Z,23.24
2019-05-25T14:29:25.960Z,23.25
2019-05-25T14:31:53.446Z,23.25
2019-05-25T14:34:22.661Z,23.19
2019-05-25T14:36:51.967Z,23.16
2019-05-25T14:39:21.123Z,23.09
2019-05-25T14:41:50.338Z,23.04
2019-05-25T14:44:19.598Z,23.00
2019-05-25T14:46:49.145Z,23.00
2019-05-25T14:49:18.759Z,22.94
2019-05-25T14:51:48.263Z,22.94
2019-05-25T14:54:18.676Z,22.95
2019-05-25T14:56:47.875Z,22.86
2019-05-25T14:59:17.771Z,22.84
2019-05-25T15:02:01.454Z,22.51
2019-05-25T15:04:18.474Z,22.51
2019-05-25T15:06:47.674Z,22.46
2019-05-25T15:09:17.260Z,22.33
2019-05-25T15:11:46.510Z,22.39
2019-05-25T15:14:16.064Z,22.39
2019-05-25T15:16:45.359Z,22.28
2019-05-25T15:19:14.508Z,22.09
2019-05-25T15:21:44.099Z,22.05
2019-05-25T15:24:13.339Z,22.02
2019-05-25T15:26:42.591Z,21.93
2019-05-25T15:29:11.784Z,22.09
2019-05-25T15:31:41.041Z,22.18
2019-05-25T15:34:29.186Z,22.27
2019-05-25T15:36:58.444Z,22.28
2019-05-25T15:39:27.693Z,22.32
2019-05-25T15:41:56.955Z,22.11
2019-05-25T15:44:26.149Z,21.86
2019-05-25T15:46:55.835Z,21.81
2019-05-25T15:49:32.821Z,21.89
2019-05-25T15:51:56.341Z,21.84
2019-05-25T15:54:25.958Z,21.85
2019-05-25T15:56:55.158Z,21.74
2019-05-25T15:59:24.405Z,21.59
2019-05-25T16:01:53.966Z,21.50
2019-05-25T16:04:23.665Z,21.32
2019-05-25T16:06:52.877Z,21.14
2019-05-25T16:09:22.469Z,21.12
2019-05-25T16:11:52.134Z,21.18
2019-05-25T16:14:21.383Z,21.27
2019-05-25T16:16:50.585Z,21.31
2019-05-25T16:19:19.825Z,21.13
2019-05-25T16:21:49.024Z,20.97
2019-05-25T16:24:18.261Z,20.80
2019-05-25T16:29:36.069Z,20.62
2019-05-25T16:32:05.250Z,20.24
2019-05-25T16:34:34.494Z,20.08
2019-05-25T16:37:04.164Z,20.05
2019-05-25T16:39:33.831Z,20.00
2019-05-25T16:42:03.040Z,19.87
2019-05-25T16:44:32.678Z,19.79
2019-05-25T16:47:02.137Z,19.79
2019-05-25T16:49:31.539Z,19.72
2019-05-25T16:52:01.171Z,19.57
2019-05-25T16:54:31.072Z,19.51
2019-05-25T16:57:00.400Z,19.47
2019-05-25T16:59:29.589Z,19.44
2019-05-25T17:01:58.869Z,19.34
2019-05-25T17:04:28.113Z,19.25
2019-05-25T17:06:57.364Z,19.30
2019-05-25T17:09:26.556Z,19.18
2019-05-25T17:11:55.885Z,19.06
2019-05-25T17:14:25.218Z,19.10
2019-05-25T17:16:54.468Z,19.17
2019-05-25T17:19:23.826Z,19.28
2019-05-25T17:21:53.696Z,19.32
2019-05-25T17:24:23.666Z,19.07
2019-05-25T17:26:53.294Z,19.12
2019-05-25T17:29:22.653Z,19.22
2019-05-25T17:31:51.845Z,19.31
2019-05-25T17:34:21.116Z,19.06
2019-05-25T17:36:50.598Z,19.10
2019-05-25T17:39:19.840Z,19.15
2019-05-25T17:41:49.504Z,19.20
2019-05-25T17:44:18.848Z,19.19
2019-05-25T17:46:48.040Z,18.86
2019-05-25T17:49:21.090Z,18.87
2019-05-25T17:51:50.399Z,18.90
2019-05-25T17:54:19.733Z,18.82
2019-05-25T17:56:49.397Z,18.91
2019-05-25T17:59:18.645Z,18.95
2019-05-25T18:01:48.204Z,19.03
2019-05-25T18:04:17.801Z,18.88
2019-05-25T18:06:47.056Z,18.66
2019-05-25T18:09:16.800Z,18.60
2019-05-25T18:11:46.095Z,18.54
2019-05-25T18:14:15.309Z,18.40
2019-05-25T18:17:04.037Z,18.19
2019-05-25T18:19:33.536Z,18.19
2019-05-25T18:22:02.889Z,18.08
2019-05-25T18:24:32.592Z,17.98
2019-05-25T18:27:02.358Z,18.04
2019-05-25T18:29:31.645Z,17.94
2019-05-25T18:34:54.672Z,17.45
2019-05-25T18:37:23.928Z,17.23
2019-05-25T18:39:53.149Z,17.12
2019-05-25T18:42:22.621Z,16.99
2019-05-25T18:44:52.288Z,16.95
2019-05-25T18:47:21.553Z,16.82
2019-05-25T18:49:50.910Z,16.95
2019-05-25T18:52:20.177Z,17.13
2019-05-25T18:54:49.783Z,17.19
2019-05-25T18:57:19.538Z,17.14
2019-05-25T18:59:48.772Z,17.19
2019-05-25T19:02:18.436Z,17.24
2019-05-25T19:04:58.265Z,17.37
2019-05-25T19:07:19.156Z,17.39
2019-05-25T19:09:48.368Z,17.40
2019-05-25T19:12:17.712Z,17.31
2019-05-25T19:14:46.968Z,17.38
2019-05-25T19:17:16.625Z,17.38
2019-05-25T19:19:46.262Z,17.14
2019-05-25T19:22:15.552Z,17.14
2019-05-25T19:24:44.724Z,17.12
2019-05-25T19:27:14.290Z,17.13
2019-05-25T19:29:43.484Z,17.23
2019-05-25T19:32:12.758Z,16.93
2019-05-25T19:34:56.629Z,16.97
2019-05-25T19:37:13.353Z,16.97
2019-05-25T19:39:43.371Z,16.75
2019-05-25T19:42:12.627Z,16.69
2019-05-25T19:44:41.854Z,16.64
2019-05-25T19:47:11.124Z,16.74
2019-05-25T19:49:40.339Z,16.78
2019-05-25T19:52:09.582Z,16.73
2019-05-25T19:54:38.807Z,16.63
2019-05-25T19:57:08.079Z,16.60
2019-05-25T19:59:37.287Z,16.55
2019-05-25T20:02:06.566Z,16.54
2019-05-25T20:04:36.111Z,16.54
2019-05-25T20:07:05.375Z,16.61
2019-05-25T20:09:35.347Z,16.60
2019-05-25T20:12:04.773Z,16.61
2019-05-25T20:14:34.389Z,16.54
2019-05-25T20:17:03.666Z,16.57
2019-05-25T20:19:32.891Z,16.54
2019-05-25T20:22:02.161Z,16.47
2019-05-25T20:24:31.766Z,16.54
2019-05-25T20:27:01.795Z,16.46
2019-05-25T20:29:32.579Z,16.47
2019-05-25T20:32:01.810Z,16.47
2019-05-25T20:34:31.071Z,16.54
2019-05-25T20:37:00.275Z,16.43
2019-05-25T20:39:29.524Z,16.32
2019-05-25T20:41:58.715Z,16.35
2019-05-25T20:44:27.972Z,16.36
2019-05-25T20:46:57.171Z,16.38
2019-05-25T20:49:26.443Z,16.16
2019-05-25T20:54:43.908Z,16.16
2019-05-25T20:57:13.448Z,16.17
2019-05-25T21:00:02.044Z,16.14
2019-05-25T21:02:31.454Z,16.08
2019-05-25T21:05:00.714Z,15.98
2019-05-25T21:07:29.924Z,15.89
2019-05-25T21:09:59.553Z,15.97
2019-05-25T21:12:28.777Z,15.96
2019-05-25T21:14:58.029Z,16.02
2019-05-25T21:17:27.590Z,15.99
2019-05-25T21:19:56.837Z,16.07
2019-05-25T21:22:26.431Z,16.05
2019-05-25T21:24:56.020Z,15.98
2019-05-25T21:27:25.377Z,15.90
2019-05-25T21:29:55.031Z,15.88
2019-05-25T21:32:24.240Z,15.68
2019-05-25T21:34:53.690Z,15.67
2019-05-25T21:37:23.346Z,15.63
2019-05-25T21:39:52.554Z,15.78
2019-05-25T21:42:21.789Z,15.76
2019-05-25T21:44:51.044Z,15.62
2019-05-25T21:47:20.752Z,15.63
2019-05-25T21:49:49.951Z,15.57
2019-05-25T21:52:19.503Z,15.55
2019-05-25T21:54:48.707Z,15.64
2019-05-25T21:57:37.216Z,15.61
2019-05-25T22:03:17.025Z,15.55
2019-05-25T22:05:46.286Z,15.56
2019-05-25T22:08:15.550Z,15.46
2019-05-25T22:13:57.950Z,15.41
2019-05-25T22:16:27.133Z,15.44
2019-05-25T22:18:56.689Z,15.44
2019-05-25T22:21:26.199Z,15.48
2019-05-25T22:23:55.811Z,15.52
2019-05-25T22:26:25.312Z,15.47
2019-05-25T22:28:54.591Z,15.41
2019-05-25T22:31:24.115Z,15.47
2019-05-25T22:33:53.377Z,15.58
2019-05-25T22:36:22.590Z,15.50
2019-05-25T22:38:51.824Z,15.41
2019-05-25T22:41:21.445Z,15.58
2019-05-25T22:43:50.710Z,15.52
2019-05-25T22:46:20.945Z,15.35
2019-05-25T22:48:50.565Z,15.44
2019-05-25T22:51:20.154Z,15.53
2019-05-25T22:53:49.359Z,15.49
2019-05-25T22:56:18.618Z,15.43
2019-05-25T22:58:47.823Z,15.43
2019-05-25T23:01:17.500Z,15.43
2019-05-25T23:03:46.693Z,15.49
2019-05-25T23:06:16.574Z,15.65
2019-05-25T23:08:45.774Z,15.58
2019-05-25T23:11:15.063Z,15.65
2019-05-25T23:13:44.251Z,15.51
2019-05-25T23:16:14.480Z,15.61
2019-05-25T23:18:44.412Z,15.46
2019-05-25T23:21:14.034Z,15.48
2019-05-25T23:23:43.517Z,15.48
2019-05-25T23:26:12.758Z,15.29
2019-05-25T23:28:42.320Z,15.11
2019-05-25T23:31:11.566Z,15.06
2019-05-25T23:33:40.785Z,14.98
2019-05-25T23:36:10.320Z,15.08
2019-05-25T23:38:39.520Z,15.29
2019-05-25T23:41:08.779Z,15.22
2019-05-25T23:43:38.325Z,15.35
2019-05-25T23:46:07.587Z,15.41
2019-05-25T23:48:36.820Z,15.21
2019-05-25T23:51:06.428Z,15.25
2019-05-25T23:53:35.933Z,15.20
2019-05-25T23:56:05.438Z,15.21
2019-05-25T23:58:34.731Z,15.19
